createdAt,value
2022-10-09T00:00:09.195Z,5.03
2022-10-09T00:02:35.735Z,2.17
2022-10-09T00:05:04.113Z,3.60
2022-10-09T00:07:30.653Z,3.43
2022-10-09T00:09:57.139Z,2.90
2022-10-09T00:12:23.652Z,3.13
2022-10-09T00:14:50.147Z,2.97
2022-10-09T00:17:16.640Z,2.20
2022-10-09T00:19:43.155Z,2.30
2022-10-09T00:22:10.989Z,2.23
2022-10-09T00:24:37.529Z,3.43
2022-10-09T00:27:04.126Z,3.17
2022-10-09T00:29:31.135Z,3.53
2022-10-09T00:31:57.615Z,2.50
2022-10-09T00:34:24.141Z,3.07
2022-10-09T00:36:50.600Z,3.20
2022-10-09T00:39:18.489Z,3.53
2022-10-09T00:41:44.978Z,4.57
2022-10-09T00:44:50.150Z,3.77
2022-10-09T00:47:20.340Z,3.20
2022-10-09T00:49:48.018Z,4.70
2022-10-09T00:52:14.896Z,3.50
2022-10-09T00:54:43.428Z,3.17
2022-10-09T00:57:10.492Z,2.87
2022-10-09T00:59:37.761Z,2.40
2022-10-09T01:02:04.267Z,4.27
2022-10-09T01:04:30.906Z,2.57
2022-10-09T01:07:10.840Z,3.93
2022-10-09T01:09:40.824Z,2.77
2022-10-09T01:12:17.911Z,3.30
2022-10-09T01:14:50.672Z,4.27
2022-10-09T01:17:22.883Z,2.40
2022-10-09T01:20:03.479Z,3.07
2022-10-09T01:22:41.525Z,3.43
2022-10-09T01:25:10.847Z,2.83
2022-10-09T01:27:38.903Z,3.00
2022-10-09T01:30:08.560Z,2.50
2022-10-09T01:32:37.875Z,3.53
2022-10-09T01:35:06.500Z,3.23
2022-10-09T01:37:34.363Z,2.87
2022-10-09T01:40:02.830Z,3.00
2022-10-09T01:42:30.026Z,3.83
2022-10-09T01:44:58.080Z,3.83
2022-10-09T01:47:25.005Z,4.53
2022-10-09T01:49:57.483Z,3.13
2022-10-09T01:52:32.722Z,3.93
2022-10-09T01:55:08.092Z,1.53
2022-10-09T01:57:40.655Z,3.10
2022-10-09T02:00:11.493Z,2.27
2022-10-09T02:02:39.802Z,3.00
2022-10-09T02:05:08.763Z,2.13
2022-10-09T02:07:35.562Z,1.50
2022-10-09T02:10:04.753Z,2.37
2022-10-09T02:12:36.872Z,2.53
2022-10-09T02:15:03.921Z,3.67
2022-10-09T02:17:36.748Z,3.30
2022-10-09T02:20:08.293Z,2.73
2022-10-09T02:22:36.174Z,3.30
2022-10-09T02:25:06.231Z,2.77
2022-10-09T02:30:26.823Z,2.97
2022-10-09T02:32:54.650Z,2.30
2022-10-09T02:35:21.672Z,3.33
2022-10-09T02:37:48.188Z,3.80
2022-10-09T02:40:14.972Z,3.27
2022-10-09T02:42:41.468Z,3.80
2022-10-09T02:45:09.415Z,5.13
2022-10-09T02:47:35.918Z,2.80
2022-10-09T02:50:04.456Z,2.47
2022-10-09T02:52:30.996Z,3.10
2022-10-09T02:54:57.479Z,4.30
2022-10-09T02:57:23.979Z,3.40
2022-10-09T02:59:50.475Z,3.27
2022-10-09T03:02:17.180Z,3.30
2022-10-09T03:04:43.788Z,3.20
2022-10-09T03:07:11.651Z,2.80
2022-10-09T03:09:38.147Z,5.30
2022-10-09T03:12:05.259Z,3.30
2022-10-09T03:14:31.727Z,2.23
2022-10-09T03:16:58.186Z,3.77
2022-10-09T03:19:24.717Z,2.03
2022-10-09T03:21:51.192Z,2.67
2022-10-09T03:24:19.033Z,2.43
2022-10-09T03:26:45.560Z,2.63
2022-10-09T03:29:12.032Z,1.90
2022-10-09T03:31:53.857Z,2.57
2022-10-09T03:34:20.506Z,3.03
2022-10-09T03:36:47.003Z,4.33
2022-10-09T03:39:13.517Z,3.27
2022-10-09T03:41:41.377Z,2.57
2022-10-09T03:44:07.866Z,3.83
2022-10-09T03:46:34.492Z,3.07
2022-10-09T03:49:00.988Z,1.83
2022-10-09T03:51:27.489Z,1.60
2022-10-09T03:53:54.026Z,2.43
2022-10-09T03:56:20.602Z,2.40
2022-10-09T03:58:48.415Z,2.23
2022-10-09T04:01:14.960Z,2.70
2022-10-09T04:03:41.464Z,2.40
2022-10-09T04:06:07.965Z,2.63
2022-10-09T04:08:35.340Z,2.10
2022-10-09T04:11:02.092Z,1.70
2022-10-09T04:13:28.893Z,2.03
2022-10-09T04:15:56.929Z,2.07
2022-10-09T04:18:24.299Z,2.30
2022-10-09T04:20:51.286Z,2.40
2022-10-09T04:23:18.207Z,2.10
2022-10-09T04:25:45.160Z,2.10
2022-10-09T04:28:11.893Z,3.00
2022-10-09T04:30:38.446Z,2.50
2022-10-09T04:33:11.778Z,2.20
2022-10-09T04:35:41.765Z,2.63
2022-10-09T04:38:08.239Z,2.00
2022-10-09T04:40:34.821Z,2.00
2022-10-09T04:43:01.311Z,2.33
2022-10-09T04:45:27.869Z,2.57
2022-10-09T04:47:54.403Z,2.97
2022-10-09T04:50:22.309Z,2.20
2022-10-09T04:52:48.985Z,3.47
2022-10-09T04:55:15.724Z,3.10
2022-10-09T04:57:42.300Z,2.93
2022-10-09T05:00:09.990Z,2.93
2022-10-09T05:02:36.683Z,2.57
2022-10-09T05:05:03.548Z,2.20
2022-10-09T05:07:37.226Z,3.83
2022-10-09T05:10:04.524Z,2.50
2022-10-09T05:12:31.013Z,2.37
2022-10-09T05:14:57.529Z,2.33
2022-10-09T05:17:24.134Z,2.20
2022-10-09T05:19:50.688Z,3.50
2022-10-09T05:22:17.168Z,2.03
2022-10-09T05:24:45.570Z,3.73
2022-10-09T05:27:12.053Z,2.60
2022-10-09T05:29:38.617Z,2.27
2022-10-09T05:32:05.170Z,2.07
2022-10-09T05:34:33.402Z,2.80
2022-10-09T05:36:59.890Z,2.13
2022-10-09T05:39:26.398Z,2.43
2022-10-09T05:41:54.230Z,3.23
2022-10-09T05:44:20.909Z,2.90
2022-10-09T05:46:47.393Z,2.50
2022-10-09T05:49:13.870Z,2.80
2022-10-09T05:51:41.242Z,3.03
2022-10-09T05:54:07.739Z,2.30
2022-10-09T05:56:35.913Z,3.47
2022-10-09T05:59:06.465Z,6.47
2022-10-09T06:01:35.357Z,6.73
2022-10-09T06:04:02.895Z,4.57
2022-10-09T06:06:31.420Z,3.33
2022-10-09T06:08:58.825Z,3.67
2022-10-09T06:11:26.813Z,2.57
2022-10-09T06:13:53.293Z,4.43
2022-10-09T06:16:25.245Z,2.43
2022-10-09T06:18:53.595Z,2.60
2022-10-09T06:21:20.437Z,2.87
2022-10-09T06:23:49.386Z,3.40
2022-10-09T06:26:15.896Z,3.27
2022-10-09T06:28:42.473Z,4.27
2022-10-09T06:31:10.532Z,3.33
2022-10-09T06:33:40.572Z,4.10
2022-10-09T06:36:10.445Z,3.00
2022-10-09T06:38:37.454Z,4.90
2022-10-09T06:41:05.592Z,3.27
2022-10-09T06:43:32.389Z,2.57
2022-10-09T06:46:01.390Z,2.67
2022-10-09T06:48:28.959Z,3.30
2022-10-09T06:51:00.683Z,2.50
2022-10-09T06:53:27.184Z,2.43
2022-10-09T06:55:54.291Z,2.37
2022-10-09T06:58:21.177Z,3.10
2022-10-09T07:00:47.806Z,2.33
2022-10-09T07:03:14.564Z,2.20
2022-10-09T07:05:41.250Z,2.87
2022-10-09T07:08:09.067Z,2.33
2022-10-09T07:10:35.558Z,2.13
2022-10-09T07:13:02.073Z,2.60
2022-10-09T07:15:28.627Z,2.23
2022-10-09T07:17:55.138Z,2.20
2022-10-09T07:20:21.673Z,2.00
2022-10-09T07:22:48.369Z,2.60
2022-10-09T07:25:16.609Z,3.00
2022-10-09T07:27:43.177Z,2.80
2022-10-09T07:30:10.477Z,2.30
2022-10-09T07:32:36.954Z,2.90
2022-10-09T07:35:03.706Z,2.47
2022-10-09T07:37:30.187Z,3.30
2022-10-09T07:39:56.699Z,4.33
2022-10-09T07:42:24.587Z,2.90
2022-10-09T07:44:51.059Z,2.80
2022-10-09T07:47:17.552Z,2.63
2022-10-09T07:49:44.030Z,3.40
2022-10-09T07:52:10.522Z,2.70
2022-10-09T07:54:37.017Z,3.00
2022-10-09T07:57:03.592Z,3.17
2022-10-09T07:59:31.446Z,3.00
2022-10-09T08:01:57.992Z,2.77
2022-10-09T08:04:24.500Z,6.10
2022-10-09T08:06:51.011Z,4.43
2022-10-09T08:09:18.246Z,3.23
2022-10-09T08:11:44.763Z,3.07
2022-10-09T08:14:16.759Z,6.30
2022-10-09T08:16:47.483Z,7.03
2022-10-09T08:19:14.047Z,6.43
2022-10-09T08:21:40.539Z,5.57
2022-10-09T08:24:07.258Z,4.33
2022-10-09T08:26:33.742Z,3.00
2022-10-09T08:29:01.705Z,2.80
2022-10-09T08:31:29.098Z,4.60
2022-10-09T08:33:58.956Z,4.00
2022-10-09T08:36:26.430Z,5.60
2022-10-09T08:38:53.383Z,4.17
2022-10-09T08:41:27.500Z,3.20
2022-10-09T08:44:00.512Z,3.20
2022-10-09T08:46:33.014Z,3.53
2022-10-09T08:49:03.582Z,3.00
2022-10-09T08:51:36.281Z,3.33
2022-10-09T08:54:11.664Z,3.87
2022-10-09T08:56:38.503Z,3.77
2022-10-09T08:59:05.120Z,4.53
2022-10-09T09:01:37.721Z,3.60
2022-10-09T09:04:31.140Z,3.17
2022-10-09T09:07:06.146Z,3.10
2022-10-09T09:09:41.341Z,3.23
2022-10-09T09:12:14.437Z,3.57
2022-10-09T09:14:55.408Z,3.30
2022-10-09T09:17:27.607Z,3.47
2022-10-09T09:20:03.503Z,3.30
2022-10-09T09:22:31.966Z,2.53
2022-10-09T09:25:07.507Z,2.23
2022-10-09T09:27:36.080Z,2.10
2022-10-09T09:30:13.304Z,3.63
2022-10-09T09:32:43.427Z,2.33
2022-10-09T09:35:21.241Z,2.40
2022-10-09T09:37:47.926Z,1.60
2022-10-09T09:40:36.780Z,2.17
2022-10-09T09:43:11.608Z,1.97
2022-10-09T09:45:38.117Z,1.53
2022-10-09T09:48:11.962Z,2.00
2022-10-09T09:50:50.607Z,3.20
2022-10-09T09:53:30.219Z,1.50
2022-10-09T09:55:56.871Z,1.97
2022-10-09T09:58:30.584Z,2.90
2022-10-09T10:00:59.808Z,2.80
2022-10-09T10:03:27.357Z,1.87
2022-10-09T10:05:56.707Z,2.10
2022-10-09T10:08:25.147Z,3.13
2022-10-09T10:10:53.597Z,1.70
2022-10-09T10:13:22.546Z,0.83
2022-10-09T10:15:52.587Z,2.33
2022-10-09T10:18:20.708Z,2.10
2022-10-09T10:20:49.192Z,3.00
2022-10-09T10:23:30.043Z,4.70
2022-10-09T10:25:58.433Z,2.70
2022-10-09T10:28:29.713Z,2.70
2022-10-09T10:30:58.931Z,4.00
2022-10-09T10:33:29.110Z,2.50
2022-10-09T10:35:57.675Z,1.60
2022-10-09T10:38:31.613Z,2.37
2022-10-09T10:41:08.304Z,3.47
2022-10-09T10:43:41.651Z,2.23
2022-10-09T10:46:15.878Z,2.80
2022-10-09T10:48:44.212Z,2.23
2022-10-09T10:51:29.198Z,2.80
2022-10-09T10:54:06.278Z,1.87
2022-10-09T10:56:37.694Z,2.87
2022-10-09T10:59:28.349Z,1.83
2022-10-09T11:02:11.153Z,1.50
2022-10-09T11:04:46.516Z,2.57
2022-10-09T11:07:21.881Z,2.13
2022-10-09T11:10:00.989Z,1.77
2022-10-09T11:12:54.288Z,1.73
2022-10-09T11:15:29.630Z,1.03
2022-10-09T11:18:04.176Z,1.10
2022-10-09T11:20:57.368Z,1.10
2022-10-09T11:23:36.268Z,1.80
2022-10-09T11:26:13.027Z,1.30
2022-10-09T11:28:47.632Z,2.00
2022-10-09T11:31:18.853Z,0.90
2022-10-09T11:33:48.620Z,2.07
2022-10-09T11:36:20.097Z,1.50
2022-10-09T11:38:51.266Z,1.30
2022-10-09T11:41:19.875Z,0.80
2022-10-09T11:43:53.987Z,1.47
2022-10-09T11:46:29.841Z,1.57
2022-10-09T11:49:07.291Z,1.93
2022-10-09T11:51:41.590Z,1.00
2022-10-09T11:54:13.268Z,1.57
2022-10-09T11:56:52.962Z,2.00
2022-10-09T11:59:22.374Z,2.00
2022-10-09T12:01:49.001Z,1.23
2022-10-09T12:04:37.386Z,5.77
2022-10-09T12:07:11.609Z,2.77
2022-10-09T12:09:41.809Z,1.27
2022-10-09T12:12:22.745Z,1.57
2022-10-09T12:14:51.337Z,1.43
2022-10-09T12:17:32.454Z,1.00
2022-10-09T12:20:04.823Z,1.37
2022-10-09T12:22:35.351Z,0.73
2022-10-09T12:25:06.191Z,2.40
2022-10-09T12:27:37.973Z,1.53
2022-10-09T12:30:17.249Z,1.47
2022-10-09T12:32:47.210Z,1.13
2022-10-09T12:35:21.288Z,0.90
2022-10-09T12:37:47.809Z,1.73
2022-10-09T12:40:16.854Z,0.80
2022-10-09T12:42:45.370Z,0.80
2022-10-09T12:45:17.958Z,1.03
2022-10-09T12:47:45.072Z,1.10
2022-10-09T12:50:22.786Z,0.90
2022-10-09T12:52:51.542Z,1.20
2022-10-09T12:55:25.760Z,3.00
2022-10-09T12:57:55.822Z,0.70
2022-10-09T13:00:22.336Z,0.70
2022-10-09T13:02:49.238Z,0.80
2022-10-09T13:05:16.218Z,1.20
2022-10-09T13:07:46.521Z,0.73
2022-10-09T13:10:18.481Z,1.57
2022-10-09T13:12:50.926Z,1.70
2022-10-09T13:15:31.545Z,0.70
2022-10-09T13:17:58.135Z,1.07
2022-10-09T13:20:26.989Z,0.93
2022-10-09T13:22:54.337Z,1.97
2022-10-09T13:25:21.001Z,0.70
2022-10-09T13:27:47.950Z,0.47
2022-10-09T13:30:14.900Z,1.00
2022-10-09T13:32:42.835Z,1.10
2022-10-09T13:35:09.693Z,1.07
2022-10-09T13:37:36.331Z,1.20
2022-10-09T13:40:03.496Z,2.17
2022-10-09T13:42:32.108Z,1.00
2022-10-09T13:44:58.810Z,1.83
2022-10-09T13:47:25.414Z,1.30
2022-10-09T13:49:53.273Z,0.60
2022-10-09T13:52:19.863Z,1.20
2022-10-09T13:54:46.368Z,1.03
2022-10-09T13:57:12.882Z,0.80
2022-10-09T13:59:39.460Z,2.20
2022-10-09T14:02:06.114Z,0.60
2022-10-09T14:04:32.657Z,1.60
2022-10-09T14:07:00.568Z,1.40
2022-10-09T14:09:27.145Z,1.03
2022-10-09T14:11:53.758Z,0.60
2022-10-09T14:14:20.359Z,1.07
2022-10-09T14:16:46.911Z,1.83
2022-10-09T14:19:13.600Z,1.17
2022-10-09T14:21:40.120Z,1.47
2022-10-09T14:24:08.102Z,0.70
2022-10-09T14:26:34.620Z,2.40
2022-10-09T14:29:02.379Z,0.80
2022-10-09T14:31:29.312Z,1.03
2022-10-09T14:33:57.220Z,1.00
2022-10-09T14:36:24.038Z,1.10
2022-10-09T14:38:50.944Z,1.03
2022-10-09T14:41:19.574Z,1.33
2022-10-09T14:43:46.875Z,1.00
2022-10-09T14:46:15.131Z,0.97
2022-10-09T14:48:41.646Z,0.70
2022-10-09T14:51:11.483Z,1.13
2022-10-09T14:53:37.998Z,1.23
2022-10-09T14:56:05.937Z,1.43
2022-10-09T14:58:35.930Z,1.33
2022-10-09T15:01:03.638Z,0.93
2022-10-09T15:03:30.376Z,1.33
2022-10-09T15:05:57.319Z,1.10
2022-10-09T15:08:23.855Z,0.90
2022-10-09T15:10:50.422Z,1.10
2022-10-09T15:13:17.032Z,1.33
2022-10-09T15:15:44.907Z,1.57
2022-10-09T15:18:11.508Z,1.03
2022-10-09T15:20:38.067Z,1.33
2022-10-09T15:23:04.581Z,1.17
2022-10-09T15:25:31.128Z,0.93
2022-10-09T15:28:00.373Z,0.93
2022-10-09T15:30:27.552Z,1.03
2022-10-09T15:32:55.735Z,1.90
2022-10-09T15:35:22.298Z,0.80
2022-10-09T15:37:51.349Z,1.37
2022-10-09T15:40:20.366Z,1.50
2022-10-09T15:42:46.985Z,2.53
2022-10-09T15:45:13.664Z,1.30
2022-10-09T15:47:50.876Z,1.73
2022-10-09T15:50:19.390Z,1.20
2022-10-09T15:52:46.043Z,1.27
2022-10-09T15:55:12.618Z,1.40
2022-10-09T15:57:39.107Z,1.20
2022-10-09T16:00:06.991Z,1.23
2022-10-09T16:02:33.516Z,1.83
2022-10-09T16:05:00.013Z,0.70
2022-10-09T16:07:27.885Z,1.20
2022-10-09T16:09:54.391Z,1.00
2022-10-09T16:12:20.879Z,1.60
2022-10-09T16:14:47.376Z,1.10
2022-10-09T16:17:14.018Z,1.60
2022-10-09T16:19:40.515Z,1.57
2022-10-09T16:22:07.094Z,1.30
2022-10-09T16:24:34.940Z,1.40
2022-10-09T16:27:01.477Z,1.13
2022-10-09T16:29:29.453Z,1.30
2022-10-09T16:31:55.995Z,1.00
2022-10-09T16:34:22.517Z,1.10
2022-10-09T16:36:49.037Z,1.80
2022-10-09T16:39:15.571Z,1.23
2022-10-09T16:41:43.562Z,1.17
2022-10-09T16:44:12.941Z,1.57
2022-10-09T16:46:39.496Z,3.17
2022-10-09T16:49:06.098Z,1.80
2022-10-09T16:51:35.577Z,1.30
2022-10-09T16:54:04.401Z,1.67
2022-10-09T16:56:32.828Z,3.33
2022-10-09T16:59:02.872Z,2.53
2022-10-09T17:01:29.939Z,2.10
2022-10-09T17:03:57.529Z,2.93
2022-10-09T17:06:25.167Z,2.90
2022-10-09T17:08:53.066Z,4.10
2022-10-09T17:11:20.744Z,2.53
2022-10-09T17:13:47.702Z,2.27
2022-10-09T17:16:20.415Z,3.07
2022-10-09T17:18:47.698Z,4.27
2022-10-09T17:21:15.990Z,2.43
2022-10-09T17:23:42.548Z,2.70
2022-10-09T17:26:11.491Z,2.70
2022-10-09T17:28:38.868Z,2.23
2022-10-09T17:31:08.454Z,2.20
2022-10-09T17:33:36.847Z,2.80
2022-10-09T17:36:03.626Z,2.33
2022-10-09T17:38:30.164Z,2.67
2022-10-09T17:40:56.701Z,2.07
2022-10-09T17:43:23.204Z,2.30
2022-10-09T17:45:49.742Z,3.80
2022-10-09T17:48:16.305Z,2.47
2022-10-09T17:50:51.654Z,3.93
2022-10-09T17:53:18.504Z,2.53
2022-10-09T17:55:45.330Z,2.30
2022-10-09T17:58:11.839Z,2.87
2022-10-09T18:00:38.814Z,3.70
2022-10-09T18:03:05.403Z,3.90
2022-10-09T18:05:31.935Z,2.40
2022-10-09T18:07:59.778Z,2.13
2022-10-09T18:10:26.308Z,1.73
2022-10-09T18:12:52.808Z,1.73
2022-10-09T18:15:19.337Z,1.47
2022-10-09T18:17:45.817Z,2.00
2022-10-09T18:20:12.356Z,2.97
2022-10-09T18:22:38.829Z,1.87
2022-10-09T18:25:07.597Z,2.67
2022-10-09T18:27:34.133Z,2.27
2022-10-09T18:30:00.668Z,2.07
2022-10-09T18:32:27.213Z,2.30
2022-10-09T18:34:53.738Z,2.00
2022-10-09T18:37:20.249Z,1.63
2022-10-09T18:39:46.793Z,1.63
2022-10-09T18:42:14.785Z,1.60
2022-10-09T18:44:41.634Z,1.90
2022-10-09T18:47:10.437Z,1.10
2022-10-09T18:49:39.975Z,1.57
2022-10-09T18:52:09.890Z,1.87
2022-10-09T18:54:36.450Z,0.80
2022-10-09T18:57:04.566Z,1.10
2022-10-09T18:59:35.112Z,1.40
2022-10-09T19:02:01.644Z,1.63
2022-10-09T19:04:28.196Z,1.00
2022-10-09T19:06:54.863Z,1.30
2022-10-09T19:09:21.471Z,1.57
2022-10-09T19:11:47.974Z,2.43
2022-10-09T19:14:14.504Z,2.43
2022-10-09T19:16:42.387Z,1.70
2022-10-09T19:19:08.883Z,2.33
2022-10-09T19:21:35.480Z,2.90
2022-10-09T19:24:02.008Z,2.37
2022-10-09T19:26:28.901Z,3.60
2022-10-09T19:28:55.945Z,1.63
2022-10-09T19:31:22.471Z,1.50
2022-10-09T19:33:50.351Z,1.50
2022-10-09T19:36:17.277Z,1.70
2022-10-09T19:38:44.135Z,1.60
2022-10-09T19:41:13.020Z,4.10
2022-10-09T19:43:39.856Z,1.60
2022-10-09T19:46:08.032Z,1.77
2022-10-09T19:48:35.046Z,1.63
2022-10-09T19:51:07.013Z,1.50
2022-10-09T19:53:33.666Z,1.97
2022-10-09T19:56:00.677Z,2.43
2022-10-09T19:58:27.202Z,1.80
2022-10-09T20:00:53.782Z,2.33
2022-10-09T20:03:20.355Z,1.93
2022-10-09T20:05:46.941Z,2.70
2022-10-09T20:08:14.826Z,2.90
2022-10-09T20:10:41.334Z,2.43
2022-10-09T20:13:07.830Z,3.60
2022-10-09T20:15:34.376Z,4.43
2022-10-09T20:18:00.886Z,2.10
2022-10-09T20:20:27.416Z,2.47
2022-10-09T20:22:54.088Z,3.07
2022-10-09T20:25:22.040Z,3.57
2022-10-09T20:27:48.519Z,2.60
2022-10-09T20:30:15.313Z,2.53
2022-10-09T20:32:41.790Z,2.30
2022-10-09T20:35:08.589Z,1.93
2022-10-09T20:37:35.081Z,1.80
2022-10-09T20:40:01.642Z,2.47
2022-10-09T20:42:29.471Z,2.83
2022-10-09T20:44:55.993Z,2.77
2022-10-09T20:47:22.522Z,2.03
2022-10-09T20:49:49.011Z,2.30
2022-10-09T20:52:15.500Z,2.20
2022-10-09T20:54:42.049Z,2.13
2022-10-09T20:57:08.560Z,2.93
2022-10-09T20:59:36.459Z,2.47
2022-10-09T21:02:03.085Z,3.17
2022-10-09T21:04:29.584Z,3.17
2022-10-09T21:06:56.087Z,2.77
2022-10-09T21:09:22.599Z,4.53
2022-10-09T21:11:49.181Z,2.60
2022-10-09T21:14:15.678Z,3.50
2022-10-09T21:16:43.632Z,2.97
2022-10-09T21:19:10.840Z,3.67
2022-10-09T21:21:37.354Z,4.30
2022-10-09T21:24:04.298Z,3.43
2022-10-09T21:26:31.984Z,3.20
2022-10-09T21:28:59.987Z,3.00
2022-10-09T21:31:29.069Z,3.30
2022-10-09T21:33:58.151Z,4.00
2022-10-09T21:36:32.306Z,3.27
2022-10-09T21:38:58.837Z,2.37
2022-10-09T21:41:25.548Z,3.47
2022-10-09T21:43:52.129Z,3.30
2022-10-09T21:46:18.721Z,3.27
2022-10-09T21:48:45.251Z,2.67
2022-10-09T21:51:13.129Z,3.60
2022-10-09T21:53:39.661Z,2.17
2022-10-09T21:56:07.041Z,2.67
2022-10-09T21:58:33.535Z,2.43
2022-10-09T22:01:01.248Z,3.80
2022-10-09T22:03:29.795Z,2.00
2022-10-09T22:05:56.352Z,2.00
2022-10-09T22:08:24.963Z,2.67
2022-10-09T22:10:51.508Z,2.13
2022-10-09T22:13:18.825Z,1.93
2022-10-09T22:15:50.173Z,1.80
2022-10-09T22:18:17.597Z,1.60
2022-10-09T22:20:47.066Z,1.57
2022-10-09T22:23:14.461Z,2.07
2022-10-09T22:25:42.381Z,2.63
2022-10-09T22:28:08.958Z,1.97
2022-10-09T22:30:35.796Z,1.80
2022-10-09T22:33:02.402Z,1.40
2022-10-09T22:35:28.876Z,2.87
2022-10-09T22:37:55.347Z,1.30
2022-10-09T22:40:21.832Z,3.17
2022-10-09T22:42:49.913Z,2.57
2022-10-09T22:45:16.543Z,2.37
2022-10-09T22:47:43.007Z,1.50
2022-10-09T22:50:10.108Z,1.30
2022-10-09T22:52:36.608Z,2.40
2022-10-09T22:55:03.384Z,1.43
2022-10-09T22:57:29.869Z,1.17
2022-10-09T22:59:57.768Z,1.87
2022-10-09T23:02:24.270Z,1.40
2022-10-09T23:04:50.810Z,1.30
2022-10-09T23:07:17.302Z,1.73
2022-10-09T23:09:43.798Z,1.40
2022-10-09T23:12:10.282Z,1.07
2022-10-09T23:14:36.767Z,2.00
2022-10-09T23:17:04.580Z,2.10
2022-10-09T23:19:31.069Z,1.37
2022-10-09T23:21:57.573Z,1.80
2022-10-09T23:24:24.097Z,1.30
2022-10-09T23:26:51.193Z,1.83
2022-10-09T23:29:19.538Z,1.67
2022-10-09T23:31:46.328Z,1.27
2022-10-09T23:34:14.243Z,1.43
2022-10-09T23:36:40.732Z,1.40
2022-10-09T23:39:07.437Z,1.30
2022-10-09T23:41:34.157Z,2.13
2022-10-09T23:44:00.651Z,1.30
2022-10-09T23:46:29.381Z,1.53
2022-10-09T23:48:56.299Z,1.43
2022-10-09T23:51:25.532Z,1.27
2022-10-09T23:53:52.513Z,1.57
2022-10-09T23:56:23.853Z,1.00
2022-10-09T23:58:50.592Z,0.90
